Time;durP1;ratioP1;P1;durP2;ratioP2;P2;SDS_P1;SDS_P2;PMS_P1;PMS_P2;Temp;Humidity;BMP_temperature;BMP_pressure;BME280_temperature;BME280_humidity;BME280_pressure;Samples;Min_cycle;Max_cycle;Signal;HPM_P1;HPM_P2
2022/06/20 00:01:43;;;;;;;10.52;7.53;;;;;;;28.63;39.96;95680.09;5021223;28;20205;-84
2022/06/20 00:04:15;;;;;;;11.88;7.50;;;;;;;28.58;40.04;95673.63;5031278;28;20237;-84
2022/06/20 00:06:42;;;;;;;12.45;7.70;;;;;;;28.44;40.05;95678.84;5038805;28;20298;-84
2022/06/20 00:09:10;;;;;;;11.02;7.90;;;;;;;28.44;40.37;95658.63;5024250;28;20211;-84
2022/06/20 00:11:41;;;;;;;13.93;7.82;;;;;;;28.39;40.19;95662.50;5021822;28;20226;-84
2022/06/20 00:14:14;;;;;;;8.45;7.55;;;;;;;28.36;40.38;95657.66;5041960;28;20217;-84
2022/06/20 00:16:41;;;;;;;12.32;7.22;;;;;;;28.38;40.23;95655.31;5019637;28;20203;-84
2022/06/20 00:19:10;;;;;;;13.80;7.75;;;;;;;28.36;40.00;95654.06;5017020;28;20202;-85
2022/06/20 00:21:38;;;;;;;10.68;7.53;;;;;;;28.33;40.46;95657.59;5021966;28;20203;-84
2022/06/20 00:24:05;;;;;;;10.10;7.63;;;;;;;28.28;40.68;95658.66;5025668;28;20209;-84
2022/06/20 00:26:34;;;;;;;8.20;7.38;;;;;;;28.23;40.83;95653.38;5024494;28;20246;-83
2022/06/20 00:29:03;;;;;;;10.48;7.30;;;;;;;28.27;40.40;95651.47;5042157;28;20203;-84
2022/06/20 00:31:32;;;;;;;9.27;7.35;;;;;;;28.35;40.20;95649.66;5023356;28;20361;-84
2022/06/20 00:33:59;;;;;;;11.48;7.68;;;;;;;28.21;41.26;95661.25;5032443;28;20212;-84
2022/06/20 00:36:26;;;;;;;10.82;7.47;;;;;;;28.12;40.82;95650.31;5036918;28;20357;-84
2022/06/20 00:38:55;;;;;;;9.02;6.55;;;;;;;28.02;41.50;95669.47;5023517;28;20199;-84
2022/06/20 00:41:27;;;;;;;8.73;7.00;;;;;;;27.99;41.77;95656.28;5042865;28;20296;-85
2022/06/20 00:43:55;;;;;;;13.85;7.57;;;;;;;27.98;41.98;95651.94;5026442;28;20294;-84
2022/06/20 00:46:29;;;;;;;7.82;7.07;;;;;;;28.11;41.16;95645.91;5014128;28;20206;-84
2022/06/20 00:49:04;;;;;;;10.63;7.75;;;;;;;28.29;40.58;95651.94;5045774;28;20290;-84
2022/06/20 00:51:36;;;;;;;10.70;7.47;;;;;;;28.37;40.33;95659.25;5045151;28;20298;-85
2022/06/20 00:54:11;;;;;;;8.32;7.47;;;;;;;28.37;40.41;95656.47;5020983;28;20265;-84
2022/06/20 00:56:50;;;;;;;9.18;7.10;;;;;;;28.31;40.88;95659.91;5017769;28;20252;-84
2022/06/20 00:59:24;;;;;;;11.02;7.72;;;;;;;28.26;40.52;95660.97;5041878;28;20203;-84
2022/06/20 01:01:52;;;;;;;11.80;7.45;;;;;;;28.29;40.90;95646.38;5026602;28;20312;-85
2022/06/20 01:04:26;;;;;;;13.23;7.80;;;;;;;28.20;41.03;95645.75;5021390;28;20211;-84
2022/06/20 01:06:57;;;;;;;13.43;7.85;;;;;;;28.19;41.03;95655.25;5029880;28;20202;-84
2022/06/20 01:09:29;;;;;;;11.55;7.50;;;;;;;28.20;40.96;95648.53;5033972;28;20361;-84
2022/06/20 01:12:02;;;;;;;13.55;8.27;;;;;;;28.32;40.73;95644.84;5020106;28;20215;-85
2022/06/20 01:14:34;;;;;;;10.90;7.63;;;;;;;28.44;40.70;95653.88;5028863;28;20211;-85
2022/06/20 01:17:05;;;;;;;11.90;7.60;;;;;;;28.46;40.45;95645.97;5023002;28;20214;-83
2022/06/20 01:19:46;;;;;;;12.55;8.13;;;;;;;28.46;40.54;95653.50;5031116;28;20203;-85
2022/06/20 01:22:30;;;;;;;10.70;7.88;;;;;;;28.40;40.62;95639.13;5025822;28;20219;-84
2022/06/20 01:25:11;;;;;;;13.93;8.07;;;;;;;28.39;40.76;95634.72;5019546;28;20211;-84
2022/06/20 01:27:42;;;;;;;11.93;8.05;;;;;;;28.38;40.66;95632.31;5033993;28;20292;-85
2022/06/20 01:30:10;;;;;;;12.45;8.65;;;;;;;28.45;40.58;95647.16;5040907;28;20284;-84
2022/06/20 01:32:38;;;;;;;12.02;8.25;;;;;;;28.35;40.81;95633.00;5026978;28;20206;-84
2022/06/20 01:35:08;;;;;;;11.90;8.25;;;;;;;28.42;40.89;95656.19;5041769;28;20207;-84
2022/06/20 01:37:39;;;;;;;11.43;7.15;;;;;;;28.39;40.93;95654.16;5026140;28;20207;-83
2022/06/20 01:40:10;;;;;;;15.18;8.38;;;;;;;28.28;40.71;95639.22;5022905;28;20296;-84
2022/06/20 01:42:39;;;;;;;11.73;8.27;;;;;;;28.24;41.54;95638.34;5041309;28;20225;-84
2022/06/20 01:45:57;;;;;;;13.10;8.38;;;;;;;28.23;41.23;95647.81;5024155;28;20212;-84
2022/06/20 01:48:03;;;;;;;14.30;8.27;;;;;;;28.23;41.38;95654.19;5040946;28;20213;-84
2022/06/20 01:50:31;;;;;;;9.35;7.60;;;;;;;28.18;41.49;95648.09;5031756;28;20229;-85
2022/06/20 01:53:02;;;;;;;12.52;7.85;;;;;;;28.19;41.62;95644.94;5025483;28;20206;-84
2022/06/20 01:55:30;;;;;;;14.32;9.10;;;;;;;28.10;41.84;95649.84;5032202;28;20206;-84
2022/06/20 01:58:09;;;;;;;14.27;8.18;;;;;;;28.12;41.67;95649.50;5032164;28;20252;-85
2022/06/20 02:00:37;;;;;;;12.60;8.27;;;;;;;28.13;41.63;95642.78;5028949;28;20267;-84
2022/06/20 02:03:08;;;;;;;11.10;7.57;;;;;;;28.01;42.39;95652.00;5015542;28;20222;-84
2022/06/20 02:05:36;;;;;;;14.52;8.40;;;;;;;28.04;42.11;95647.72;5028484;28;20302;-84
2022/06/20 02:08:06;;;;;;;15.45;8.32;;;;;;;28.14;41.69;95647.97;5014957;28;20216;-84
2022/06/20 02:10:39;;;;;;;11.02;8.63;;;;;;;28.15;41.45;95652.38;5027633;28;20226;-84
2022/06/20 02:13:08;;;;;;;11.73;8.32;;;;;;;28.12;41.90;95649.50;5034912;28;20282;-84
2022/06/20 02:15:36;;;;;;;10.88;8.00;;;;;;;28.04;41.95;95656.03;5024330;28;20215;-85
2022/06/20 02:18:07;;;;;;;12.60;8.20;;;;;;;28.17;41.49;95658.38;5031169;28;20297;-84
2022/06/20 02:20:40;;;;;;;13.73;8.30;;;;;;;28.21;41.38;95644.59;5017028;28;20281;-84
2022/06/20 02:23:08;;;;;;;13.35;8.60;;;;;;;28.16;41.87;95642.06;5018783;28;20227;-84
2022/06/20 02:25:36;;;;;;;13.73;8.23;;;;;;;28.07;41.96;95638.69;5024324;28;20219;-84
2022/06/20 02:28:09;;;;;;;12.25;8.80;;;;;;;28.08;42.02;95632.75;5027172;28;20231;-85
2022/06/20 02:30:38;;;;;;;13.52;8.45;;;;;;;28.03;42.14;95635.00;5039808;28;20223;-85
2022/06/20 02:33:12;;;;;;;10.48;8.30;;;;;;;28.14;41.59;95644.41;5024193;28;20206;-84
2022/06/20 02:35:40;;;;;;;15.52;8.23;;;;;;;28.15;41.47;95643.25;5015932;28;20210;-84
2022/06/20 02:38:08;;;;;;;9.65;8.57;;;;;;;28.09;41.77;95639.09;5013749;28;20199;-85
2022/06/20 02:40:41;;;;;;;9.50;8.38;;;;;;;28.03;41.89;95632.22;5019505;28;20292;-84
2022/06/20 02:43:16;;;;;;;8.93;7.97;;;;;;;27.96;42.02;95635.63;5027491;28;20206;-85
2022/06/20 02:45:45;;;;;;;13.77;8.35;;;;;;;27.82;42.62;95630.53;5021487;28;20211;-84
2022/06/20 02:48:13;;;;;;;13.00;8.10;;;;;;;27.87;42.44;95635.00;5024071;28;20202;-84
2022/06/20 02:50:46;;;;;;;9.45;7.88;;;;;;;27.85;41.99;95632.59;5025016;28;20237;-83
2022/06/20 02:53:19;;;;;;;9.32;8.18;;;;;;;27.95;41.98;95622.94;5023034;28;20261;-85
2022/06/20 02:55:47;;;;;;;11.50;8.05;;;;;;;27.94;41.77;95623.28;5028063;28;20269;-84
2022/06/20 02:58:20;;;;;;;12.50;7.68;;;;;;;27.91;42.12;95630.34;5028599;28;20203;-83
2022/06/20 03:00:53;;;;;;;9.73;7.85;;;;;;;27.87;42.12;95629.47;5022441;28;20213;-84
2022/06/20 03:03:26;;;;;;;13.73;8.38;;;;;;;27.72;42.28;95611.66;5038281;28;20207;-85
2022/06/20 03:05:53;;;;;;;14.20;8.57;;;;;;;27.80;42.40;95630.09;5023777;28;20203;-84
2022/06/20 03:08:22;;;;;;;12.23;8.65;;;;;;;27.77;42.60;95628.03;5020794;28;20294;-84
2022/06/20 03:10:51;;;;;;;13.68;8.68;;;;;;;27.71;42.50;95626.69;5022190;28;20227;-84
2022/06/20 03:13:22;;;;;;;12.40;8.00;;;;;;;27.67;42.79;95624.97;5034020;28;20273;-84
2022/06/20 03:15:51;;;;;;;13.05;8.38;;;;;;;27.74;42.60;95625.97;5019541;28;20214;-85
2022/06/20 03:18:21;;;;;;;11.18;8.50;;;;;;;27.80;42.35;95620.97;5013947;28;20230;-85
2022/06/20 03:20:48;;;;;;;11.52;8.20;;;;;;;27.85;42.35;95618.72;5039086;28;20239;-84
2022/06/20 03:23:20;;;;;;;10.15;8.18;;;;;;;27.72;42.80;95627.50;5023726;28;20190;-84
2022/06/20 03:25:48;;;;;;;12.77;8.65;;;;;;;27.59;43.47;95618.44;5023155;28;20280;-84
2022/06/20 03:28:20;;;;;;;15.82;8.68;;;;;;;27.61;43.12;95618.91;5029638;28;20233;-84
2022/06/20 03:30:48;;;;;;;14.48;8.90;;;;;;;27.45;43.67;95615.28;5020748;28;20211;-84
2022/06/20 03:33:16;;;;;;;9.27;8.10;;;;;;;27.39;43.89;95636.13;5034439;28;20229;-84
2022/06/20 03:35:52;;;;;;;9.13;7.90;;;;;;;26.93;45.84;95634.81;5009314;28;20250;-84
2022/06/20 03:38:19;;;;;;;16.60;8.73;;;;;;;26.98;45.01;95637.31;5019530;28;20227;-84
2022/06/20 03:40:47;;;;;;;15.43;8.57;;;;;;;27.29;43.73;95617.22;5011325;28;20233;-84
2022/06/20 03:43:17;;;;;;;12.30;9.25;;;;;;;27.44;43.80;95633.06;5026641;28;20301;-85
2022/06/20 03:45:51;;;;;;;12.68;9.20;;;;;;;27.51;43.23;95630.47;5023855;28;20217;-84
2022/06/20 03:48:25;;;;;;;12.27;8.48;;;;;;;27.56;43.16;95633.00;5023372;28;20213;-84
2022/06/20 03:50:57;;;;;;;10.98;8.00;;;;;;;27.38;44.23;95623.41;5041450;28;20226;-84
2022/06/20 03:53:36;;;;;;;12.93;8.10;;;;;;;27.20;44.68;95627.66;5011711;28;20215;-83
2022/06/20 03:56:11;;;;;;;13.32;8.20;;;;;;;27.09;44.88;95636.47;5013916;28;20207;-84
2022/06/20 03:58:42;;;;;;;15.85;8.65;;;;;;;27.45;43.33;95632.72;5031174;28;20210;-84
2022/06/20 04:01:14;;;;;;;14.27;9.20;;;;;;;27.50;43.47;95632.44;5026860;28;20265;-84
2022/06/20 04:03:44;;;;;;;14.55;8.57;;;;;;;27.50;43.95;95635.22;5025294;28;20214;-84
2022/06/20 04:06:17;;;;;;;14.10;8.88;;;;;;;27.42;44.05;95629.84;5038073;28;20297;-83
2022/06/20 04:11:40;;;;;;;13.82;9.45;;;;;;;27.36;43.80;95636.81;5044018;28;20222;-84
2022/06/20 04:14:14;;;;;;;11.80;8.90;;;;;;;27.59;43.33;95654.50;5024442;28;20203;-84
2022/06/20 04:16:48;;;;;;;13.77;9.02;;;;;;;27.62;43.30;95656.56;5025189;28;20242;-84
2022/06/20 04:19:19;;;;;;;12.07;8.15;;;;;;;27.54;44.47;95654.78;5020842;28;20285;-83
2022/06/20 04:21:52;;;;;;;13.10;9.10;;;;;;;27.37;44.57;95657.84;5024330;28;20267;-84
2022/06/20 04:24:26;;;;;;;12.60;8.88;;;;;;;27.44;43.67;95660.78;5027522;28;20207;-84
2022/06/20 04:26:58;;;;;;;14.75;8.27;;;;;;;27.44;44.46;95669.13;5040510;28;20231;-84
2022/06/20 04:29:31;;;;;;;15.23;9.48;;;;;;;27.22;45.50;95678.00;5020069;28;20191;-84
2022/06/20 04:32:06;;;;;;;13.77;8.73;;;;;;;27.04;47.36;95686.63;5028599;28;20232;-84
2022/06/20 04:34:42;;;;;;;10.40;8.02;;;;;;;26.66;49.07;95691.75;5040718;28;20218;-84
2022/06/20 04:37:18;;;;;;;13.48;7.93;;;;;;;26.38;51.01;95698.00;5021360;28;20211;-84
2022/06/20 04:39:49;;;;;;;10.18;8.02;;;;;;;26.22;52.33;95691.53;5044106;28;20225;-85
2022/06/20 04:42:22;;;;;;;9.43;7.78;;;;;;;26.16;52.90;95694.88;5029251;28;20241;-84
2022/06/20 04:44:55;;;;;;;10.68;7.60;;;;;;;25.91;55.29;95711.47;5023593;28;20237;-84
2022/06/20 04:47:36;;;;;;;11.88;8.70;;;;;;;25.83;56.43;95697.72;5025496;28;20257;-84
2022/06/20 04:50:06;;;;;;;13.75;8.52;;;;;;;25.76;57.36;95708.56;5031259;28;20277;-84
2022/06/20 04:52:34;;;;;;;11.32;7.65;;;;;;;25.71;57.35;95728.09;5029184;28;20218;-83
2022/06/20 04:55:01;;;;;;;12.13;8.15;;;;;;;25.66;58.21;95742.97;5025020;28;20208;-84
2022/06/20 04:57:33;;;;;;;9.77;7.78;;;;;;;25.57;58.79;95742.22;5034037;28;20208;-84
2022/06/20 05:00:04;;;;;;;13.90;8.30;;;;;;;25.55;59.51;95741.75;5044299;28;20521;-84
2022/06/20 05:02:33;;;;;;;10.50;7.47;;;;;;;25.44;59.75;95751.59;5019645;28;20208;-84
2022/06/20 05:05:04;;;;;;;15.93;7.93;;;;;;;25.25;60.91;95758.47;5032346;28;20221;-83
2022/06/20 05:07:36;;;;;;;15.18;8.40;;;;;;;25.19;61.35;95750.69;5042505;28;20228;-88
2022/06/20 05:10:11;;;;;;;16.63;8.93;;;;;;;25.25;61.61;95755.69;5026162;28;20214;-89
2022/06/20 05:12:46;;;;;;;10.45;8.10;;;;;;;25.24;61.68;95750.50;5020757;28;20233;-88
2022/06/20 05:15:19;;;;;;;14.48;8.20;;;;;;;25.13;62.49;95757.56;5015353;28;20201;-88
2022/06/20 05:17:50;;;;;;;20.35;8.55;;;;;;;25.02;63.98;95761.88;5043642;28;20211;-90
2022/06/20 05:20:24;;;;;;;11.98;7.65;;;;;;;25.08;64.04;95766.06;5018703;28;20206;-87
2022/06/20 05:22:57;;;;;;;12.32;8.30;;;;;;;25.03;64.48;95769.03;5030497;28;20203;-89
2022/06/20 05:25:27;;;;;;;9.60;8.25;;;;;;;24.97;65.15;95776.72;5026906;28;20237;-89
2022/06/20 05:27:59;;;;;;;10.25;8.70;;;;;;;25.04;63.77;95776.16;5022587;28;20246;-88
2022/06/20 05:30:31;;;;;;;12.50;8.10;;;;;;;24.99;63.10;95781.91;5042504;28;20221;-89
2022/06/20 05:33:04;;;;;;;11.15;8.00;;;;;;;25.00;63.37;95794.56;5019015;28;20349;-89
2022/06/20 05:35:37;;;;;;;10.75;7.80;;;;;;;25.03;63.46;95785.59;5015868;28;20222;-90
2022/06/20 05:38:12;;;;;;;12.73;8.85;;;;;;;25.05;66.53;95800.69;5027991;28;20199;-88
2022/06/20 05:40:44;;;;;;;13.00;8.25;;;;;;;24.85;69.39;95793.16;5027350;28;20234;-89
2022/06/20 05:43:17;;;;;;;13.43;8.52;;;;;;;24.68;68.80;95796.81;5028402;28;20215;-87
2022/06/20 05:45:47;;;;;;;10.75;8.40;;;;;;;24.45;71.16;95815.63;5026324;28;20219;-89
2022/06/20 05:48:15;;;;;;;11.07;8.00;;;;;;;24.54;72.45;95801.78;5025704;28;20302;-89
2022/06/20 05:50:50;;;;;;;13.35;8.88;;;;;;;24.56;73.10;95812.50;5028525;28;20207;-90
2022/06/20 05:53:24;;;;;;;11.60;7.88;;;;;;;24.56;72.45;95802.25;5015201;28;20234;-87
2022/06/20 05:55:54;;;;;;;11.57;8.13;;;;;;;24.65;72.52;95811.31;5050856;28;20214;-89
2022/06/20 05:58:25;;;;;;;10.02;8.52;;;;;;;24.69;73.81;95817.78;5020409;28;20325;-89
2022/06/20 06:00:55;;;;;;;11.73;7.95;;;;;;;24.66;74.10;95815.69;5023916;28;20222;-89
2022/06/20 06:03:30;;;;;;;11.30;8.15;;;;;;;24.63;72.93;95805.31;5023793;28;20207;-89
2022/06/20 06:06:01;;;;;;;14.32;8.85;;;;;;;24.51;72.26;95807.97;5021397;28;20234;-89
2022/06/20 06:08:35;;;;;;;11.57;8.07;;;;;;;24.43;72.13;95815.13;5035281;28;20260;-90
2022/06/20 06:11:07;;;;;;;10.90;8.23;;;;;;;24.39;71.77;95822.47;5019641;28;20261;-90
2022/06/20 06:13:42;;;;;;;14.35;8.52;;;;;;;24.44;71.37;95824.22;5022359;28;20302;-90
2022/06/20 06:19:10;;;;;;;12.38;9.30;;;;;;;24.47;78.97;95829.09;5027521;28;20215;-88
2022/06/20 06:21:38;;;;;;;11.68;8.55;;;;;;;24.41;78.14;95831.22;5041239;28;20217;-88
2022/06/20 06:24:08;;;;;;;11.05;8.27;;;;;;;24.45;79.09;95839.66;5020140;28;20297;-90
2022/06/20 06:26:36;;;;;;;12.85;8.23;;;;;;;24.48;79.63;95830.72;5022522;28;20253;-88
2022/06/20 06:29:07;;;;;;;12.18;8.85;;;;;;;24.46;75.84;95828.28;5018147;28;20214;-89
2022/06/20 06:31:41;;;;;;;13.75;8.88;;;;;;;24.53;79.71;95841.56;5006743;28;20266;-90
2022/06/20 06:34:19;;;;;;;14.32;8.55;;;;;;;24.49;80.52;95843.38;5008973;28;20294;-89
2022/06/20 06:36:52;;;;;;;11.20;8.73;;;;;;;24.56;81.32;95843.66;5008776;28;20301;-90
2022/06/20 06:39:24;;;;;;;14.52;8.05;;;;;;;24.60;81.85;95849.31;5025092;28;20199;-88
2022/06/20 06:41:56;;;;;;;10.60;7.97;;;;;;;24.63;80.39;95857.75;5010540;28;20196;-90
2022/06/20 06:44:30;;;;;;;11.48;8.68;;;;;;;24.59;79.99;95853.22;5014598;28;20559;-88
2022/06/20 06:46:58;;;;;;;17.42;8.65;;;;;;;24.58;80.49;95851.63;5027250;28;20198;-90
2022/06/20 06:49:33;;;;;;;13.23;8.68;;;;;;;24.60;80.70;95863.13;4998203;28;20207;-87
2022/06/20 06:52:09;;;;;;;10.65;7.97;;;;;;;24.60;80.15;95858.41;5009953;28;20230;-89
2022/06/20 06:54:53;;;;;;;12.77;8.40;;;;;;;24.72;79.50;95860.47;5007878;28;20214;-88
2022/06/20 06:57:25;;;;;;;11.88;9.45;;;;;;;24.76;79.99;95869.69;5001858;28;20214;-87
2022/06/20 06:59:58;;;;;;;13.52;9.35;;;;;;;24.73;81.41;95865.69;5006792;28;20207;-89
2022/06/20 07:02:30;;;;;;;15.23;9.65;;;;;;;24.78;79.67;95865.47;5011474;28;20202;-89
2022/06/20 07:05:04;;;;;;;15.73;8.85;;;;;;;24.80;80.66;95870.66;5013727;28;20203;-88
2022/06/20 07:07:39;;;;;;;12.13;8.68;;;;;;;24.74;81.28;95877.53;5007333;28;20212;-89
2022/06/20 07:10:12;;;;;;;14.07;8.60;;;;;;;24.79;80.47;95869.88;4999946;28;20218;-89
2022/06/20 07:12:45;;;;;;;12.27;8.30;;;;;;;24.73;79.68;95867.63;5001767;28;20226;-84
2022/06/20 07:15:16;;;;;;;14.82;7.80;;;;;;;24.91;75.54;95871.94;4999465;28;20253;-84
2022/06/20 07:17:50;;;;;;;13.05;8.05;;;;;;;25.20;71.59;95873.88;4998839;28;20230;-84
2022/06/20 07:20:20;;;;;;;13.55;8.07;;;;;;;25.84;63.20;95879.94;5004448;28;20223;-84
2022/06/20 07:22:49;;;;;;;16.55;7.95;;;;;;;26.33;62.24;95878.16;5024198;28;20294;-84
2022/06/20 07:25:19;;;;;;;13.68;7.43;;;;;;;26.83;60.84;95876.25;5006656;28;20219;-84
2022/06/20 07:27:55;;;;;;;17.02;7.95;;;;;;;27.21;59.87;95867.63;5010885;28;20281;-84
2022/06/20 07:30:26;;;;;;;10.05;7.47;;;;;;;27.60;59.11;95875.19;5018954;28;20218;-84
2022/06/20 07:32:57;;;;;;;16.05;8.45;;;;;;;27.99;55.28;95869.97;5010004;28;20269;-83
2022/06/20 07:35:31;;;;;;;12.82;7.80;;;;;;;28.27;54.73;95865.25;5001521;28;20249;-85
2022/06/20 07:38:03;;;;;;;17.33;7.40;;;;;;;28.47;57.67;95863.41;5019415;28;20204;-84
2022/06/20 07:40:34;;;;;;;11.15;7.45;;;;;;;28.51;51.02;95870.66;4997754;28;20211;-84
2022/06/20 07:43:07;;;;;;;14.55;7.68;;;;;;;28.65;50.18;95866.66;5004948;28;20227;-84
2022/06/20 07:45:38;;;;;;;13.98;6.80;;;;;;;28.70;47.82;95872.72;5019218;28;20214;-84
2022/06/20 07:48:12;;;;;;;11.70;6.72;;;;;;;28.84;48.40;95873.09;4998170;28;20325;-83
2022/06/20 07:50:47;;;;;;;13.50;7.10;;;;;;;29.01;48.11;95871.94;5007473;28;20215;-83
2022/06/20 07:53:18;;;;;;;10.60;7.05;;;;;;;29.14;46.57;95870.69;5013398;28;20269;-84
2022/06/20 07:55:50;;;;;;;16.35;7.90;;;;;;;29.15;47.65;95871.50;4997032;28;20293;-84
2022/06/20 07:58:21;;;;;;;9.88;6.75;;;;;;;29.24;47.68;95870.13;4996495;28;20217;-84
2022/06/20 08:00:51;;;;;;;11.93;6.68;;;;;;;29.31;47.03;95867.50;5021781;28;20211;-84
2022/06/20 08:03:25;;;;;;;13.50;6.88;;;;;;;29.37;45.68;95870.03;5000262;28;20204;-84
2022/06/20 08:05:59;;;;;;;11.93;7.05;;;;;;;29.31;45.23;95869.47;5006052;28;20256;-84
2022/06/20 08:08:32;;;;;;;15.75;7.10;;;;;;;29.21;44.95;95861.69;5015703;28;20202;-84
2022/06/20 08:11:06;;;;;;;13.05;6.93;;;;;;;29.20;45.05;95868.41;5006439;28;20221;-85
2022/06/20 08:13:39;;;;;;;11.32;6.60;;;;;;;29.22;45.58;95860.53;5002018;28;20242;-84
2022/06/20 08:16:10;;;;;;;8.90;6.65;;;;;;;29.28;45.05;95859.06;5004964;28;20307;-84
2022/06/20 08:18:37;;;;;;;13.57;6.45;;;;;;;29.36;44.49;95858.09;5005051;28;20302;-84
2022/06/20 08:21:13;;;;;;;16.65;6.70;;;;;;;29.54;44.04;95861.28;5019323;28;20214;-84
2022/06/20 08:23:46;;;;;;;10.00;6.68;;;;;;;29.40;42.70;95860.97;5007293;28;20313;-84
2022/06/20 08:26:19;;;;;;;14.32;7.68;;;;;;;29.55;44.10;95863.69;5008415;28;20222;-84
2022/06/20 08:28:54;;;;;;;15.23;7.00;;;;;;;29.68;44.74;95865.19;5017244;28;20231;-84
2022/06/20 08:31:29;;;;;;;12.02;6.63;;;;;;;29.73;44.30;95858.53;5018193;28;20326;-85
2022/06/20 08:34:05;;;;;;;15.23;6.85;;;;;;;29.75;43.51;95872.88;5018163;28;20222;-84
2022/06/20 08:36:39;;;;;;;13.13;6.85;;;;;;;29.74;44.84;95865.69;5031948;28;20483;-85
2022/06/20 08:39:10;;;;;;;13.55;7.50;;;;;;;29.72;43.16;95857.72;5024062;28;20215;-85
2022/06/20 08:41:58;;;;;;;14.48;7.78;;;;;;;29.82;45.19;95861.09;5019281;28;20278;-88
2022/06/20 08:45:07;;;;;;;13.05;7.35;;;;;;;29.87;44.21;95869.94;5025311;28;20224;-86
2022/06/20 08:48:13;;;;;;;14.13;6.30;;;;;;;29.78;43.35;95861.00;5027694;28;20210;-85
2022/06/20 08:51:14;;;;;;;11.82;6.90;;;;;;;29.64;43.94;95866.28;5024978;28;20215;-85
2022/06/20 08:54:38;;;;;;;12.73;7.78;;;;;;;29.74;44.23;95860.13;5004781;28;20264;-85
2022/06/20 08:57:11;;;;;;;10.05;6.88;;;;;;;29.76;43.78;95857.00;5020052;28;20298;-84
2022/06/20 09:00:03;;;;;;;10.70;6.65;;;;;;;29.85;43.85;95863.16;5026751;28;20302;-85
2022/06/20 09:02:59;;;;;;;8.27;6.70;;;;;;;29.64;43.64;95860.72;5040899;28;20210;-84
2022/06/20 09:05:43;;;;;;;14.43;7.30;;;;;;;29.43;44.34;95863.84;5020124;28;20210;-85
2022/06/20 09:08:39;;;;;;;16.73;6.80;;;;;;;29.44;45.50;95865.44;5044214;28;20198;-85
2022/06/20 09:11:23;;;;;;;13.77;7.60;;;;;;;29.35;45.12;95859.22;5021312;28;20214;-85
2022/06/20 09:14:08;;;;;;;15.48;7.22;;;;;;;29.39;45.56;95862.94;5034941;28;20316;-84
2022/06/20 09:16:48;;;;;;;12.15;7.80;;;;;;;29.40;46.73;95864.56;5032937;28;20286;-83
2022/06/20 09:19:38;;;;;;;8.95;7.20;;;;;;;29.45;45.97;95857.91;5020432;28;20274;-84
2022/06/20 09:22:17;;;;;;;11.98;7.63;;;;;;;29.56;45.93;95859.75;5030644;28;20266;-84
2022/06/20 09:24:57;;;;;;;15.00;7.95;;;;;;;29.55;45.68;95855.34;5028215;28;20217;-83
2022/06/20 09:27:36;;;;;;;10.00;7.75;;;;;;;29.67;45.07;95857.22;5044676;28;20280;-84
2022/06/20 09:30:12;;;;;;;10.35;6.82;;;;;;;29.71;44.01;95860.84;5029156;28;20230;-84
2022/06/20 09:33:06;;;;;;;12.05;7.60;;;;;;;29.65;44.53;95852.00;5028339;28;20230;-83
2022/06/20 09:35:53;;;;;;;10.60;6.90;;;;;;;29.78;45.27;95854.63;5029019;28;20215;-85
2022/06/20 09:38:44;;;;;;;12.15;6.82;;;;;;;30.01;45.43;95866.69;5022804;28;20200;-83
2022/06/20 09:41:21;;;;;;;14.93;7.40;;;;;;;30.04;42.30;95863.97;5025268;28;20264;-83
2022/06/20 09:44:02;;;;;;;16.23;6.70;;;;;;;30.03;42.88;95861.53;5039959;28;20202;-83
2022/06/20 09:46:36;;;;;;;14.55;7.35;;;;;;;29.96;41.62;95853.88;5031031;28;20206;-83
2022/06/20 09:49:18;;;;;;;9.93;6.55;;;;;;;30.03;42.70;95856.78;5047603;28;20210;-84
2022/06/20 09:52:00;;;;;;;11.13;6.25;;;;;;;29.99;41.35;95855.94;5025624;28;20293;-84
2022/06/20 09:54:34;;;;;;;11.00;5.78;;;;;;;29.98;42.24;95845.97;5028526;28;20311;-83
2022/06/20 09:57:11;;;;;;;13.85;7.25;;;;;;;30.23;42.49;95862.34;5032270;28;20500;-84
2022/06/20 09:59:47;;;;;;;8.63;6.53;;;;;;;30.26;41.20;95844.91;5025846;28;20242;-84
2022/06/20 10:02:21;;;;;;;17.45;8.02;;;;;;;30.39;40.67;95849.94;5026918;28;20203;-84
2022/06/20 10:04:54;;;;;;;15.25;6.50;;;;;;;30.59;40.51;95833.19;5028578;28;20239;-84
2022/06/20 10:07:30;;;;;;;11.43;6.60;;;;;;;30.57;39.31;95852.25;5020960;28;20297;-84
2022/06/20 10:10:06;;;;;;;11.27;6.45;;;;;;;30.44;39.28;95848.84;5039955;28;20217;-85
2022/06/20 10:12:40;;;;;;;12.10;6.72;;;;;;;30.21;39.24;95851.56;5023453;28;20238;-83
2022/06/20 10:15:15;;;;;;;12.75;6.03;;;;;;;30.34;40.14;95846.66;5043781;28;20223;-85
2022/06/20 10:17:53;;;;;;;14.82;6.38;;;;;;;30.09;39.68;95838.63;5022324;28;20221;-84
2022/06/20 10:20:32;;;;;;;13.60;6.25;;;;;;;30.14;39.73;95831.13;5013604;28;20203;-84
2022/06/20 10:23:17;;;;;;;13.55;6.53;;;;;;;30.26;40.16;95830.97;5022090;28;20210;-84
2022/06/20 10:26:01;;;;;;;11.68;6.85;;;;;;;30.29;40.70;95828.25;5038027;28;20290;-85
2022/06/20 10:28:36;;;;;;;13.05;6.90;;;;;;;30.43;40.00;95833.28;5030715;28;20276;-85
2022/06/20 10:31:09;;;;;;;15.70;6.20;;;;;;;30.39;39.13;95829.63;5038524;28;20285;-84
2022/06/20 10:33:48;;;;;;;9.43;5.90;;;;;;;30.36;39.90;95824.81;5020869;28;20279;-84
2022/06/20 10:36:21;;;;;;;11.23;5.90;;;;;;;30.47;39.51;95826.59;5022937;28;20213;-83
2022/06/20 10:39:08;;;;;;;11.10;6.35;;;;;;;30.32;39.84;95815.56;5037040;28;20293;-83
2022/06/20 10:41:44;;;;;;;12.10;6.25;;;;;;;30.28;40.62;95829.44;5025808;28;20214;-84
2022/06/20 10:44:21;;;;;;;15.55;6.47;;;;;;;30.29;39.55;95811.53;5029161;28;20207;-85
2022/06/20 10:46:59;;;;;;;13.40;6.05;;;;;;;29.96;40.30;95814.09;5018490;28;20198;-84
2022/06/20 10:49:40;;;;;;;14.85;6.25;;;;;;;29.74;40.59;95815.63;5018254;28;20202;-84
2022/06/20 10:52:17;;;;;;;9.25;5.50;;;;;;;29.72;40.85;95817.94;5026906;28;20230;-84
2022/06/20 10:54:58;;;;;;;12.88;6.07;;;;;;;29.72;40.75;95815.97;5012274;28;20318;-84
2022/06/20 10:57:37;;;;;;;13.57;6.22;;;;;;;29.67;39.90;95816.28;5017863;28;20261;-84
2022/06/20 11:00:10;;;;;;;13.65;6.05;;;;;;;29.63;41.01;95822.94;5025745;28;20194;-85
2022/06/20 11:03:15;;;;;;;11.73;6.30;;;;;;;29.53;41.35;95820.72;5017962;28;20207;-84
2022/06/20 11:05:48;;;;;;;14.43;6.35;;;;;;;29.37;41.36;95806.06;4986706;28;20206;-84
2022/06/20 11:08:29;;;;;;;12.02;6.28;;;;;;;29.28;41.52;95800.69;5020603;28;20226;-84
2022/06/20 11:11:16;;;;;;;12.93;6.40;;;;;;;29.52;42.28;95803.22;5031620;28;20207;-83
2022/06/20 11:13:50;;;;;;;14.70;6.50;;;;;;;29.60;41.59;95795.84;5020803;28;20261;-85
2022/06/20 11:16:28;;;;;;;10.85;6.55;;;;;;;29.64;41.93;95796.72;5031712;28;20218;-84
2022/06/20 11:19:10;;;;;;;10.63;6.72;;;;;;;29.86;42.68;95789.63;5018257;28;20225;-84
2022/06/20 11:21:48;;;;;;;12.65;6.55;;;;;;;30.12;40.90;95786.16;5012707;28;20207;-84
2022/06/20 11:24:28;;;;;;;11.13;5.97;;;;;;;30.13;41.97;95791.34;5014501;28;20211;-84
2022/06/20 11:27:10;;;;;;;16.63;6.70;;;;;;;30.34;40.91;95793.72;5034546;28;20238;-83
2022/06/20 11:29:50;;;;;;;12.90;6.22;;;;;;;30.54;38.82;95794.53;5041075;28;20233;-85
2022/06/20 11:32:26;;;;;;;13.85;6.38;;;;;;;30.52;39.03;95789.31;5013307;28;20258;-84
2022/06/20 11:35:09;;;;;;;11.32;6.30;;;;;;;30.29;39.73;95785.66;5021896;28;20280;-84
2022/06/20 11:37:56;;;;;;;12.85;5.97;;;;;;;30.03;40.38;95784.41;5023685;28;20273;-84
2022/06/20 11:40:42;;;;;;;13.93;6.13;;;;;;;29.91;41.70;95787.34;5029949;28;20223;-84
2022/06/20 11:43:39;;;;;;;9.48;6.20;;;;;;;29.89;41.34;95791.66;5019970;28;20269;-84
2022/06/20 11:46:27;;;;;;;10.70;6.35;;;;;;;29.85;40.56;95788.81;5018569;28;20214;-84
2022/06/20 11:49:11;;;;;;;15.05;6.35;;;;;;;29.83;41.19;95795.91;5008703;28;20219;-84
2022/06/20 11:51:54;;;;;;;12.70;6.30;;;;;;;29.79;41.37;95789.47;5034275;28;20199;-85
2022/06/20 11:54:31;;;;;;;9.68;5.80;;;;;;;29.74;41.56;95793.34;5015627;28;20222;-84
2022/06/20 11:57:04;;;;;;;8.85;5.90;;;;;;;29.77;42.38;95797.41;5016359;28;20318;-84
2022/06/20 11:59:44;;;;;;;13.15;6.72;;;;;;;29.69;42.69;95782.50;5019837;28;20211;-84
2022/06/20 12:02:29;;;;;;;13.10;6.28;;;;;;;29.65;43.15;95784.41;5016365;28;20207;-84
2022/06/20 12:05:20;;;;;;;16.80;6.68;;;;;;;29.57;43.85;95782.66;5011065;28;20199;-85
2022/06/20 12:07:55;;;;;;;13.02;6.25;;;;;;;29.39;44.87;95787.03;5024815;28;20269;-83